Time;durP1;ratioP1;P1;durP2;ratioP2;P2;SDS_P1;SDS_P2;PMS_P1;PMS_P2;Temp;Humidity;BMP_temperature;BMP_pressure;BME280_temperature;BME280_humidity;BME280_pressure;Samples;Min_cycle;Max_cycle;Signal;HPM_P1;HPM_P2
2022/01/17 00:00:43;;;;;;;;;;;5.40;99.90;;;;;;5064326;28;20015;-82
2022/01/17 00:03:08;;;;;;;;;;;5.30;99.90;;;;;;5064302;28;19964;-82
2022/01/17 00:05:34;;;;;;;;;;;5.30;99.90;;;;;;5082013;28;20015;-82
2022/01/17 00:07:59;;;;;;;;;;;5.30;99.90;;;;;;5062960;28;19924;-82
2022/01/17 00:10:25;;;;;;;;;;;5.30;99.90;;;;;;5063148;28;20278;-82
2022/01/17 00:12:52;;;;;;;;;;;5.30;99.90;;;;;;5063307;28;19924;-82
2022/01/17 00:21:08;;;;;;;;;;;5.20;99.90;;;;;;5102589;28;19970;-82
2022/01/17 00:23:34;;;;;;;;;;;5.10;99.90;;;;;;5101673;28;19924;-82
2022/01/17 00:25:59;;;;;;;;;;;5.10;99.90;;;;;;5102213;28;20345;-82
2022/01/17 00:28:25;;;;;;;;;;;5.10;99.90;;;;;;5102420;28;19934;-82
2022/01/17 00:30:50;;;;;;;;;;;5.00;99.90;;;;;;5102341;28;19924;-82
2022/01/17 00:33:16;;;;;;;;;;;4.90;99.90;;;;;;5083271;28;19924;-82
2022/01/17 00:35:41;;;;;;;;;;;4.90;99.90;;;;;;5101418;28;19924;-82
2022/01/17 00:38:07;;;;;;;;;;;4.80;99.90;;;;;;5102899;28;19924;-83
2022/01/17 00:40:33;;;;;;;;;;;4.70;99.90;;;;;;5102583;28;19987;-82
2022/01/17 00:42:59;;;;;;;;;;;4.60;99.90;;;;;;5102004;28;19924;-82
2022/01/17 00:48:47;;;;;;;;;;;4.50;99.90;;;;;;5110069;28;20412;-82
2022/01/17 00:51:12;;;;;;;;;;;4.80;99.90;;;;;;5113165;28;19924;-82
2022/01/17 00:53:40;;;;;;;;;;;4.30;99.90;;;;;;5102073;28;19924;-82
2022/01/17 00:56:06;;;;;;;;;;;4.30;99.90;;;;;;5083827;28;19928;-82
2022/01/17 00:58:32;;;;;;;;;;;4.20;99.90;;;;;;5102066;28;20014;-82
2022/01/17 01:00:58;;;;;;;;;;;4.20;99.90;;;;;;5083798;28;19932;-82
2022/01/17 01:03:23;;;;;;;;;;;4.20;99.90;;;;;;5101954;28;19947;-82
2022/01/17 01:05:49;;;;;;;;;;;4.20;99.90;;;;;;5102911;28;19928;-82
2022/01/17 01:08:14;;;;;;;;;;;4.10;99.90;;;;;;5083614;28;19946;-82
2022/01/17 01:10:40;;;;;;;;;;;4.10;99.90;;;;;;5102205;28;19931;-82
2022/01/17 01:13:05;;;;;;;;;;;4.20;99.90;;;;;;5084469;28;20002;-82
2022/01/17 01:29:45;;;;;;;;;;;4.20;99.90;;;;;;5023250;28;19955;-82
2022/01/17 01:32:11;;;;;;;;;;;4.20;99.90;;;;;;5042833;28;19980;-82
2022/01/17 01:34:41;;;;;;;;;;;4.20;99.90;;;;;;5026192;28;19982;-82
2022/01/17 01:37:07;;;;;;;;;;;4.20;99.90;;;;;;5042413;28;19925;-82
2022/01/17 01:39:33;;;;;;;;;;;4.10;99.90;;;;;;5042768;28;19926;-82
2022/01/17 01:41:59;;;;;;;;;;;4.10;99.90;;;;;;5009493;28;19929;-82
2022/01/17 01:44:25;;;;;;;;;;;4.10;99.90;;;;;;5025792;28;19947;-82
2022/01/17 01:46:52;;;;;;;;;;;4.10;99.90;;;;;;5026197;28;19960;-82
2022/01/17 01:49:18;;;;;;;;;;;4.10;99.90;;;;;;5042758;28;19933;-82
2022/01/17 01:51:44;;;;;;;;;;;4.00;99.90;;;;;;5041119;28;19921;-82
2022/01/17 01:54:10;;;;;;;;;;;4.10;99.90;;;;;;5041582;28;19925;-82
2022/01/17 01:56:37;;;;;;;;;;;4.10;99.90;;;;;;5024846;28;19925;-82
2022/01/17 01:59:03;;;;;;;;;;;4.10;99.90;;;;;;5025081;28;20056;-82
2022/01/17 02:01:28;;;;;;;;;;;4.10;99.90;;;;;;5042127;28;20314;-82
2022/01/17 02:03:54;;;;;;;;;;;4.10;99.90;;;;;;5067857;28;19926;-82
2022/01/17 02:06:19;;;;;;;;;;;4.10;99.90;;;;;;5106377;28;19945;-82
2022/01/17 02:08:45;;;;;;;;;;;4.10;99.90;;;;;;5124677;28;19927;-82
2022/01/17 02:11:11;;;;;;;;;;;4.00;99.90;;;;;;5124727;28;19941;-82
2022/01/17 02:13:38;;;;;;;;;;;4.10;99.90;;;;;;5125285;28;19950;-82
2022/01/17 02:16:04;;;;;;;;;;;4.00;99.90;;;;;;5125364;28;19924;-82
2022/01/17 02:18:31;;;;;;;;;;;4.00;99.90;;;;;;5125281;28;20010;-82
2022/01/17 02:23:42;;;;;;;;;;;3.90;99.90;;;;;;5124966;28;19943;-82
2022/01/17 02:26:08;;;;;;;;;;;3.90;99.90;;;;;;5106441;28;19991;-82
2022/01/17 02:28:34;;;;;;;;;;;3.90;99.90;;;;;;5124810;28;19978;-82
2022/01/17 02:31:00;;;;;;;;;;;3.80;99.90;;;;;;5106661;28;19924;-82
2022/01/17 02:33:26;;;;;;;;;;;3.80;99.90;;;;;;5124573;28;19928;-82
2022/01/17 02:35:51;;;;;;;;;;;3.80;99.90;;;;;;5125040;28;19923;-82
2022/01/17 02:38:17;;;;;;;;;;;3.80;99.90;;;;;;5125320;28;20025;-82
2022/01/17 02:40:42;;;;;;;;;;;3.80;99.90;;;;;;5124616;28;19923;-82
2022/01/17 02:43:08;;;;;;;;;;;3.70;99.90;;;;;;5105574;28;19924;-82
2022/01/17 02:48:57;;;;;;;;;;;3.70;99.90;;;;;;5123869;28;19977;-82
2022/01/17 02:51:22;;;;;;;;;;;3.60;99.90;;;;;;5124831;28;19930;-82
2022/01/17 02:53:48;;;;;;;;;;;3.70;99.90;;;;;;5135989;28;19908;-82
2022/01/17 02:56:14;;;;;;;;;;;3.70;99.90;;;;;;5114303;28;19924;-82
2022/01/17 02:58:40;;;;;;;;;;;3.70;99.90;;;;;;5106619;28;19924;-82
2022/01/17 03:01:16;;;;;;;;;;;3.60;99.90;;;;;;5106604;28;20014;-82
2022/01/17 03:03:42;;;;;;;;;;;3.60;99.90;;;;;;5124181;28;19924;-82
2022/01/17 03:06:08;;;;;;;;;;;3.60;99.90;;;;;;5123619;28;19963;-82
2022/01/17 03:08:34;;;;;;;;;;;3.60;99.90;;;;;;5124505;28;20404;-82
2022/01/17 03:11:01;;;;;;;;;;;3.60;99.90;;;;;;5124978;28;19927;-82
2022/01/17 03:13:31;;;;;;;;;;;3.70;99.90;;;;;;5106231;28;19923;-82
2022/01/17 03:19:53;;;;;;;;;;;3.70;99.90;;;;;;5077157;28;20375;-82
2022/01/17 03:22:19;;;;;;;;;;;3.70;99.90;;;;;;5062199;28;19925;-82
2022/01/17 03:24:45;;;;;;;;;;;3.80;99.90;;;;;;5077574;28;19932;-83
2022/01/17 03:27:10;;;;;;;;;;;4.00;99.90;;;;;;5060665;28;19967;-82
2022/01/17 03:29:36;;;;;;;;;;;4.10;99.90;;;;;;5079410;28;20014;-82
2022/01/17 03:32:01;;;;;;;;;;;4.10;99.90;;;;;;5063712;28;19924;-83
2022/01/17 03:34:27;;;;;;;;;;;4.20;99.90;;;;;;5063944;28;19971;-82
2022/01/17 03:36:52;;;;;;;;;;;4.20;99.90;;;;;;5064376;28;20426;-83
2022/01/17 03:39:18;;;;;;;;;;;4.20;99.90;;;;;;5081028;28;19924;-82
2022/01/17 03:41:44;;;;;;;;;;;4.10;99.90;;;;;;5063603;28;19924;-82
2022/01/17 03:44:09;;;;;;;;;;;4.30;99.90;;;;;;5079787;28;19924;-82
2022/01/17 03:46:35;;;;;;;;;;;4.10;99.90;;;;;;5087560;28;20385;-82
2022/01/17 03:49:01;;;;;;;;;;;4.10;99.90;;;;;;5120152;28;19924;-82
2022/01/17 03:51:26;;;;;;;;;;;4.10;99.90;;;;;;5120114;28;19924;-82
2022/01/17 03:53:52;;;;;;;;;;;4.20;99.90;;;;;;5100292;28;19924;-83
2022/01/17 03:56:18;;;;;;;;;;;4.10;99.90;;;;;;5102063;28;19931;-82
2022/01/17 03:58:47;;;;;;;;;;;4.10;99.90;;;;;;5119868;28;19928;-82
2022/01/17 04:01:13;;;;;;;;;;;4.10;99.90;;;;;;5123376;28;19924;-82
2022/01/17 04:03:38;;;;;;;;;;;4.10;99.90;;;;;;5105095;28;20007;-82
2022/01/17 04:06:04;;;;;;;;;;;4.20;99.90;;;;;;5123148;28;19924;-82
2022/01/17 04:08:29;;;;;;;;;;;4.30;99.90;;;;;;5105044;28;19923;-82
2022/01/17 04:10:55;;;;;;;;;;;4.10;99.90;;;;;;5123584;28;19928;-82
2022/01/17 04:13:22;;;;;;;;;;;4.10;99.90;;;;;;5104598;28;19970;-82
2022/01/17 04:19:11;;;;;;;;;;;4.20;99.90;;;;;;5122583;28;19969;-82
2022/01/17 04:21:37;;;;;;;;;;;4.20;99.90;;;;;;5120557;28;20021;-82
2022/01/17 04:24:02;;;;;;;;;;;4.20;99.90;;;;;;5122659;28;19927;-82
2022/01/17 04:26:28;;;;;;;;;;;4.30;99.90;;;;;;5122547;28;19924;-82
2022/01/17 04:28:53;;;;;;;;;;;4.30;99.90;;;;;;5104141;28;19935;-82
2022/01/17 04:31:19;;;;;;;;;;;4.40;99.90;;;;;;5104098;28;19919;-83
2022/01/17 04:33:44;;;;;;;;;;;4.40;99.90;;;;;;5123362;28;19931;-82
2022/01/17 04:36:10;;;;;;;;;;;4.50;99.90;;;;;;5104622;28;19957;-82
2022/01/17 04:38:36;;;;;;;;;;;4.50;99.90;;;;;;5123357;28;19982;-82
2022/01/17 04:41:05;;;;;;;;;;;4.60;99.90;;;;;;5104434;28;20366;-82
2022/01/17 04:49:24;;;;;;;;;;;4.70;99.90;;;;;;5123662;28;19919;-82
2022/01/17 04:51:53;;;;;;;;;;;4.80;99.90;;;;;;5104828;28;19923;-82
2022/01/17 04:57:09;;;;;;;;;;;5.10;99.90;;;;;;5042201;28;19921;-82
2022/01/17 04:59:34;;;;;;;;;;;5.00;99.90;;;;;;5043906;28;20450;-82
2022/01/17 05:02:00;;;;;;;;;;;5.30;99.90;;;;;;5060112;28;19979;-82
2022/01/17 05:04:25;;;;;;;;;;;5.10;99.90;;;;;;5042745;28;19979;-82
2022/01/17 05:06:51;;;;;;;;;;;5.10;99.90;;;;;;5064022;28;19925;-82
2022/01/17 05:09:17;;;;;;;;;;;5.10;99.90;;;;;;5046573;28;20041;-82
2022/01/17 05:11:43;;;;;;;;;;;5.20;99.90;;;;;;5063152;28;19947;-82
2022/01/17 05:14:09;;;;;;;;;;;5.20;99.90;;;;;;5062962;28;19925;-82
2022/01/17 05:16:40;;;;;;;;;;;5.30;99.90;;;;;;5063238;28;19931;-82
2022/01/17 05:21:50;;;;;;;;;;;5.40;99.90;;;;;;5046429;28;19925;-82
2022/01/17 05:24:16;;;;;;;;;;;5.40;99.90;;;;;;5063165;28;19932;-82
2022/01/17 05:26:41;;;;;;;;;;;5.50;99.90;;;;;;5062510;28;20371;-82
2022/01/17 05:29:07;;;;;;;;;;;5.50;99.90;;;;;;5062545;28;20298;-82
2022/01/17 05:31:32;;;;;;;;;;;5.40;99.90;;;;;;5062868;28;19920;-82
2022/01/17 05:33:58;;;;;;;;;;;5.30;99.90;;;;;;5084595;28;20357;-82
2022/01/17 05:36:23;;;;;;;;;;;5.30;99.90;;;;;;5125438;28;19926;-82
2022/01/17 05:38:49;;;;;;;;;;;5.30;99.90;;;;;;5107013;28;19927;-82
2022/01/17 05:41:14;;;;;;;;;;;5.20;99.90;;;;;;5107946;28;19945;-82
2022/01/17 05:43:40;;;;;;;;;;;5.20;99.90;;;;;;5107380;28;19945;-82
2022/01/17 05:49:27;;;;;;;;;;;5.30;99.90;;;;;;5126533;28;19922;-82
2022/01/17 05:51:53;;;;;;;;;;;5.40;99.90;;;;;;5125539;28;19983;-82
2022/01/17 05:54:18;;;;;;;;;;;5.40;99.90;;;;;;5133281;28;19924;-82
2022/01/17 05:56:44;;;;;;;;;;;5.50;99.90;;;;;;5117567;28;20006;-82
2022/01/17 05:59:10;;;;;;;;;;;5.50;99.90;;;;;;5127319;28;19930;-82
2022/01/17 06:01:39;;;;;;;;;;;5.60;99.90;;;;;;5108622;28;20397;-82
2022/01/17 06:04:07;;;;;;;;;;;5.50;99.90;;;;;;5126651;28;19923;-82
2022/01/17 06:06:32;;;;;;;;;;;5.60;99.90;;;;;;5126416;28;19924;-82
2022/01/17 06:08:58;;;;;;;;;;;5.60;99.90;;;;;;5107876;28;19931;-82
2022/01/17 06:11:23;;;;;;;;;;;5.60;99.90;;;;;;5107438;28;19924;-83
2022/01/17 06:13:49;;;;;;;;;;;5.60;99.90;;;;;;5125073;28;19935;-82
2022/01/17 06:19:37;;;;;;;;;;;5.70;99.90;;;;;;5100618;28;19924;-82
2022/01/17 06:22:03;;;;;;;;;;;5.70;99.90;;;;;;5085048;28;20362;-82
2022/01/17 06:24:29;;;;;;;;;;;5.70;99.90;;;;;;5066519;28;19925;-82
2022/01/17 06:26:55;;;;;;;;;;;5.80;99.90;;;;;;5049556;28;19925;-82
2022/01/17 06:29:21;;;;;;;;;;;5.70;99.90;;;;;;5066262;28;20439;-82
2022/01/17 06:31:46;;;;;;;;;;;5.70;99.90;;;;;;5066473;28;19928;-82
2022/01/17 06:34:12;;;;;;;;;;;5.70;99.90;;;;;;5083910;28;19930;-82
2022/01/17 06:36:41;;;;;;;;;;;5.70;99.90;;;;;;5065372;28;19924;-82
2022/01/17 06:39:07;;;;;;;;;;;5.70;99.90;;;;;;5083888;28;20017;-82
2022/01/17 06:41:33;;;;;;;;;;;5.70;99.90;;;;;;5083702;28;19924;-82
2022/01/17 06:43:58;;;;;;;;;;;5.70;99.90;;;;;;5065894;28;20337;-82
2022/01/17 06:49:45;;;;;;;;;;;5.70;99.90;;;;;;5083846;28;19996;-82
2022/01/17 06:52:11;;;;;;;;;;;5.70;99.90;;;;;;5083825;28;19924;-82
2022/01/17 06:54:37;;;;;;;;;;;5.70;99.90;;;;;;5083989;28;20271;-82
2022/01/17 06:57:02;;;;;;;;;;;5.80;99.90;;;;;;5064637;28;19947;-82
2022/01/17 06:59:28;;;;;;;;;;;5.80;99.90;;;;;;5083583;28;19925;-82
2022/01/17 07:01:53;;;;;;;;;;;5.80;99.90;;;;;;5082991;28;19981;-82
2022/01/17 07:04:19;;;;;;;;;;;5.80;99.90;;;;;;5083349;28;19939;-82
2022/01/17 07:06:45;;;;;;;;;;;5.80;99.90;;;;;;5083668;28;20339;-82
2022/01/17 07:09:14;;;;;;;;;;;5.80;99.90;;;;;;5083838;28;19971;-82
2022/01/17 07:11:40;;;;;;;;;;;5.80;99.90;;;;;;5083753;28;19993;-82
2022/01/17 07:14:08;;;;;;;;;;;5.80;99.90;;;;;;5082926;28;20366;-82
2022/01/17 07:16:34;;;;;;;;;;;6.10;99.90;;;;;;5083338;28;19931;-82
2022/01/17 07:19:00;;;;;;;;;;;5.80;99.90;;;;;;5088337;28;19954;-82
2022/01/17 07:21:26;;;;;;;;;;;5.80;99.90;;;;;;5103004;28;20027;-82
2022/01/17 07:23:51;;;;;;;;;;;5.90;99.90;;;;;;5103450;28;19924;-82
2022/01/17 07:26:17;;;;;;;;;;;6.00;99.90;;;;;;5103831;28;19924;-83
2022/01/17 07:28:42;;;;;;;;;;;5.80;99.90;;;;;;5085040;28;19928;-83
2022/01/17 07:34:29;;;;;;;;;;;5.90;99.90;;;;;;5102716;28;19971;-82
2022/01/17 07:36:55;;;;;;;;;;;5.90;99.90;;;;;;5085620;28;19936;-83
2022/01/17 07:39:21;;;;;;;;;;;6.00;99.90;;;;;;5103059;28;19924;-83
2022/01/17 07:41:46;;;;;;;;;;;5.90;99.90;;;;;;5084622;28;19931;-83
2022/01/17 07:44:19;;;;;;;;;;;6.00;99.90;;;;;;5102510;28;19924;-83
2022/01/17 07:46:53;;;;;;;;;;;6.00;99.90;;;;;;5102863;28;19930;-83
2022/01/17 07:49:21;;;;;;;;;;;6.00;99.90;;;;;;5085026;28;19924;-83
2022/01/17 07:51:49;;;;;;;;;;;6.20;99.90;;;;;;5102253;28;19920;-82
2022/01/17 07:54:15;;;;;;;;;;;6.00;99.90;;;;;;5100614;28;19963;-83
2022/01/17 07:56:42;;;;;;;;;;;6.10;99.90;;;;;;5098722;28;19920;-83
2022/01/17 07:59:08;;;;;;;;;;;6.10;99.90;;;;;;5080910;28;20263;-83
2022/01/17 08:04:56;;;;;;;;;;;6.20;99.90;;;;;;5101515;28;19939;-83
2022/01/17 08:07:21;;;;;;;;;;;6.50;99.90;;;;;;5081434;28;20023;-83
2022/01/17 08:09:47;;;;;;;;;;;6.20;99.90;;;;;;5099540;28;19986;-83
2022/01/17 08:12:12;;;;;;;;;;;6.30;99.90;;;;;;5099580;28;20026;-83
2022/01/17 08:14:40;;;;;;;;;;;6.30;99.90;;;;;;5082154;28;20068;-83
2022/01/17 08:17:05;;;;;;;;;;;6.30;99.90;;;;;;5099303;28;19969;-83
2022/01/17 08:19:31;;;;;;;;;;;6.30;99.90;;;;;;5106151;28;19924;-83
2022/01/17 08:21:57;;;;;;;;;;;6.30;99.90;;;;;;5111496;28;19924;-83
2022/01/17 08:24:22;;;;;;;;;;;6.30;99.90;;;;;;5087333;28;19974;-83
2022/01/17 08:26:50;;;;;;;;;;;6.30;99.90;;;;;;5101337;28;19982;-83
2022/01/17 08:29:16;;;;;;;;;;;6.40;99.90;;;;;;5083608;28;19928;-83
2022/01/17 08:31:46;;;;;;;;;;;6.40;99.90;;;;;;5102018;28;19924;-83
2022/01/17 08:34:11;;;;;;;;;;;6.50;99.90;;;;;;5081451;28;19971;-83
2022/01/17 08:36:37;;;;;;;;;;;6.50;99.90;;;;;;5099007;28;19924;-83
2022/01/17 08:39:02;;;;;;;;;;;6.50;99.90;;;;;;5081561;28;19931;-83
2022/01/17 08:41:28;;;;;;;;;;;6.60;99.90;;;;;;5105377;28;19924;-83
2022/01/17 08:43:54;;;;;;;;;;;6.60;99.90;;;;;;5094927;28;19924;-83
2022/01/17 08:49:41;;;;;;;;;;;6.70;99.90;;;;;;5103584;28;19951;-83
2022/01/17 08:52:06;;;;;;;;;;;6.80;99.90;;;;;;5105235;28;19923;-83
2022/01/17 08:54:32;;;;;;;;;;;6.80;99.90;;;;;;5103679;28;20390;-83
2022/01/17 08:56:57;;;;;;;;;;;6.90;99.90;;;;;;5103698;28;20281;-83
2022/01/17 08:59:23;;;;;;;;;;;6.90;99.90;;;;;;5103464;28;19931;-83
2022/01/17 09:01:48;;;;;;;;;;;6.90;99.90;;;;;;5102594;28;20018;-83
2022/01/17 09:04:14;;;;;;;;;;;7.00;99.90;;;;;;5083663;28;20325;-83
2022/01/17 09:06:40;;;;;;;;;;;6.90;99.90;;;;;;5104255;28;19924;-83
2022/01/17 09:09:05;;;;;;;;;;;7.00;99.90;;;;;;5085939;28;19928;-83
2022/01/17 09:11:31;;;;;;;;;;;7.00;99.90;;;;;;5084975;28;19924;-83
2022/01/17 09:13:56;;;;;;;;;;;7.10;99.90;;;;;;5103737;28;20266;-83
2022/01/17 09:19:46;;;;;;;;;;;7.10;99.90;;;;;;5103592;28;19962;-83
2022/01/17 09:22:11;;;;;;;;;;;7.10;99.90;;;;;;5102648;28;19924;-83
2022/01/17 09:24:37;;;;;;;;;;;7.20;99.90;;;;;;5084136;28;19924;-83
2022/01/17 09:27:04;;;;;;;;;;;7.20;99.90;;;;;;5083719;28;20335;-83
2022/01/17 09:29:29;;;;;;;;;;;7.20;99.90;;;;;;5082678;28;19947;-83
2022/01/17 09:31:55;;;;;;;;;;;7.30;99.90;;;;;;5085466;28;20366;-83
2022/01/17 09:34:20;;;;;;;;;;;7.30;99.90;;;;;;5102133;28;19924;-83
2022/01/17 09:36:47;;;;;;;;;;;7.30;99.90;;;;;;5083365;28;19928;-83
2022/01/17 09:39:13;;;;;;;;;;;7.30;99.90;;;;;;5102175;28;19970;-83
2022/01/17 09:41:39;;;;;;;;;;;7.30;99.90;;;;;;5084458;28;19924;-83
2022/01/17 09:44:05;;;;;;;;;;;7.30;99.90;;;;;;5101669;28;19924;-83
2022/01/17 09:49:56;;;;;;;;;;;7.40;99.90;;;;;;5101397;28;20011;-83
2022/01/17 09:52:34;;;;;;;;;;;7.50;99.90;;;;;;5100306;28;20027;-83
2022/01/17 09:55:05;;;;;;;;;;;7.50;99.90;;;;;;5101264;28;19920;-83
2022/01/17 09:57:32;;;;;;;;;;;7.50;99.90;;;;;;5101116;28;19924;-83
2022/01/17 09:59:58;;;;;;;;;;;7.50;99.90;;;;;;5100455;28;19974;-83
2022/01/17 10:02:24;;;;;;;;;;;7.60;99.90;;;;;;5099360;28;19925;-83
2022/01/17 10:04:51;;;;;;;;;;;7.60;99.90;;;;;;5098535;28;19920;-83
2022/01/17 10:07:16;;;;;;;;;;;7.70;99.90;;;;;;5080144;28;19928;-83
2022/01/17 10:09:52;;;;;;;;;;;7.80;99.90;;;;;;5098300;28;19925;-83
2022/01/17 10:12:17;;;;;;;;;;;7.80;99.90;;;;;;5079792;28;19921;-83
2022/01/17 10:14:57;;;;;;;;;;;7.90;99.90;;;;;;5097760;28;19977;-83
2022/01/17 10:17:23;;;;;;;;;;;7.90;99.90;;;;;;5098012;28;20320;-83
2022/01/17 10:19:58;;;;;;;;;;;7.90;99.90;;;;;;5079865;28;19935;-83
2022/01/17 10:22:30;;;;;;;;;;;8.00;99.90;;;;;;5079435;28;19931;-83
2022/01/17 10:25:17;;;;;;;;;;;8.00;99.90;;;;;;5098007;28;19928;-83
2022/01/17 10:28:13;;;;;;;;;;;8.50;99.90;;;;;;5079089;28;19989;-83
2022/01/17 10:31:06;;;;;;;;;;;8.10;99.90;;;;;;5079183;28;19925;-83
2022/01/17 10:36:17;;;;;;;;;;;8.20;99.90;;;;;;5098755;28;20019;-83
2022/01/17 10:38:42;;;;;;;;;;;8.30;99.90;;;;;;5100063;28;19974;-83
2022/01/17 10:41:08;;;;;;;;;;;8.30;99.90;;;;;;5079650;28;19979;-83
2022/01/17 10:43:35;;;;;;;;;;;8.30;99.90;;;;;;5078344;28;20342;-83
2022/01/17 10:46:08;;;;;;;;;;;8.30;99.90;;;;;;5079056;28;19924;-83
2022/01/17 10:48:36;;;;;;;;;;;8.40;99.90;;;;;;5097081;28;19928;-83
2022/01/17 10:51:03;;;;;;;;;;;8.40;99.90;;;;;;5098326;28;19940;-83
2022/01/17 10:53:28;;;;;;;;;;;8.50;99.90;;;;;;5098406;28;19924;-83
2022/01/17 10:55:55;;;;;;;;;;;8.60;99.90;;;;;;5078581;28;20002;-83
2022/01/17 10:58:24;;;;;;;;;;;8.60;99.90;;;;;;5078964;28;20278;-83
2022/01/17 11:00:52;;;;;;;;;;;9.20;99.90;;;;;;5078934;28;19928;-83
2022/01/17 11:03:19;;;;;;;;;;;8.70;99.90;;;;;;5079977;28;20328;-83
2022/01/17 11:05:45;;;;;;;;;;;8.70;99.90;;;;;;5079692;28;19924;-83
2022/01/17 11:08:12;;;;;;;;;;;8.70;99.90;;;;;;5079630;28;20018;-83
2022/01/17 11:10:39;;;;;;;;;;;8.80;99.90;;;;;;5078699;28;19977;-83
2022/01/17 11:13:10;;;;;;;;;;;8.80;99.90;;;;;;5079530;28;19959;-82
2022/01/17 11:15:36;;;;;;;;;;;8.80;99.90;;;;;;5096466;28;19924;-84
2022/01/17 11:18:15;;;;;;;;;;;9.00;99.90;;;;;;5097079;28;19920;-83
2022/01/17 11:20:41;;;;;;;;;;;8.80;99.90;;;;;;5077473;28;19928;-83
2022/01/17 11:23:06;;;;;;;;;;;8.80;99.90;;;;;;5095568;28;20255;-83
2022/01/17 11:25:33;;;;;;;;;;;8.70;99.90;;;;;;5077257;28;19923;-83
2022/01/17 11:28:00;;;;;;;;;;;8.70;99.90;;;;;;5077910;28;19931;-83
2022/01/17 11:30:25;;;;;;;;;;;8.70;99.90;;;;;;5078536;28;19924;-83
2022/01/17 11:32:52;;;;;;;;;;;8.70;99.90;;;;;;5096688;28;20006;-83
2022/01/17 11:35:19;;;;;;;;;;;8.70;99.90;;;;;;5096222;28;20366;-83
2022/01/17 11:37:46;;;;;;;;;;;8.70;99.90;;;;;;5096854;28;19924;-83
2022/01/17 11:40:12;;;;;;;;;;;8.80;99.90;;;;;;5096569;28;19924;-83
2022/01/17 11:42:42;;;;;;;;;;;8.80;99.90;;;;;;5095972;28;19928;-83
2022/01/17 11:45:23;;;;;;;;;;;8.90;99.90;;;;;;5096109;28;19969;-83
2022/01/17 11:47:49;;;;;;;;;;;9.00;99.90;;;;;;5095375;28;19928;-83
2022/01/17 11:50:27;;;;;;;;;;;9.10;99.90;;;;;;5097208;28;20015;-83
2022/01/17 11:52:55;;;;;;;;;;;9.10;99.90;;;;;;5096267;28;20288;-83
2022/01/17 11:55:38;;;;;;;;;;;9.10;99.90;;;;;;5097216;28;19924;-83
2022/01/17 11:58:24;;;;;;;;;;;9.10;99.90;;;;;;5096904;28;20346;-83
2022/01/17 12:01:02;;;;;;;;;;;9.10;99.90;;;;;;5077341;28;19924;-83
2022/01/17 12:03:29;;;;;;;;;;;9.20;99.90;;;;;;5104359;28;20453;-83
2022/01/17 12:05:56;;;;;;;;;;;9.20;99.90;;;;;;5110214;28;19994;-83
2022/01/17 12:08:23;;;;;;;;;;;9.30;99.90;;;;;;5103547;28;19924;-83
2022/01/17 12:10:53;;;;;;;;;;;9.70;99.90;;;;;;5077057;28;20045;-83
2022/01/17 12:13:21;;;;;;;;;;;9.30;99.90;;;;;;5077239;28;19964;-83
2022/01/17 12:16:06;;;;;;;;;;;9.20;99.90;;;;;;5077959;28;19924;-83
2022/01/17 12:18:33;;;;;;;;;;;9.30;99.90;;;;;;5099812;28;20285;-83
2022/01/17 12:21:16;;;;;;;;;;;9.30;99.90;;;;;;5098483;28;19975;-83
2022/01/17 12:23:41;;;;;;;;;;;9.50;99.90;;;;;;5080825;28;19931;-83
2022/01/17 12:26:26;;;;;;;;;;;9.30;99.90;;;;;;5080669;28;19924;-83
2022/01/17 12:28:53;;;;;;;;;;;9.30;99.90;;;;;;5098373;28;19924;-83
2022/01/17 12:31:38;;;;;;;;;;;9.60;99.90;;;;;;5099007;28;20385;-83
2022/01/17 12:34:17;;;;;;;;;;;9.40;99.90;;;;;;5099397;28;19931;-83
2022/01/17 12:36:46;;;;;;;;;;;9.30;99.90;;;;;;5079442;28;19920;-83
2022/01/17 12:39:22;;;;;;;;;;;9.30;99.90;;;;;;5096521;28;19928;-83
2022/01/17 12:41:49;;;;;;;;;;;9.30;99.90;;;;;;5078531;28;19927;-83
2022/01/17 12:44:24;;;;;;;;;;;9.30;99.90;;;;;;5078675;28;19924;-83
2022/01/17 12:46:51;;;;;;;;;;;9.30;99.90;;;;;;5078982;28;19924;-83
2022/01/17 12:49:18;;;;;;;;;;;9.30;99.90;;;;;;5099426;28;19924;-83
2022/01/17 12:51:44;;;;;;;;;;;9.30;99.90;;;;;;5078868;28;19985;-83
2022/01/17 12:54:17;;;;;;;;;;;9.30;99.90;;;;;;5098356;28;20034;-83
2022/01/17 12:56:44;;;;;;;;;;;9.20;99.90;;;;;;5081463;28;19920;-83
2022/01/17 12:59:10;;;;;;;;;;;9.20;99.90;;;;;;5099705;28;20010;-83
2022/01/17 13:01:39;;;;;;;;;;;9.10;99.90;;;;;;5082603;28;20007;-83
2022/01/17 13:04:08;;;;;;;;;;;9.20;99.90;;;;;;5099726;28;19927;-83
2022/01/17 13:06:34;;;;;;;;;;;9.20;99.90;;;;;;5078951;28;19928;-83
2022/01/17 13:09:02;;;;;;;;;;;9.20;99.90;;;;;;5098140;28;19924;-83
2022/01/17 13:11:27;;;;;;;;;;;9.30;99.90;;;;;;5080246;28;20289;-83
2022/01/17 13:13:57;;;;;;;;;;;9.30;99.90;;;;;;5098295;28;19924;-83
2022/01/17 13:16:24;;;;;;;;;;;9.30;99.90;;;;;;5077563;28;19924;-83
2022/01/17 13:18:51;;;;;;;;;;;9.30;99.90;;;;;;5096338;28;20274;-83
2022/01/17 13:21:16;;;;;;;;;;;9.30;99.90;;;;;;5098047;28;20013;-83
2022/01/17 13:23:51;;;;;;;;;;;9.20;99.90;;;;;;5096173;28;20317;-83
2022/01/17 13:26:22;;;;;;;;;;;9.50;99.90;;;;;;5079374;28;20440;-83
2022/01/17 13:28:52;;;;;;;;;;;9.20;99.90;;;;;;5100440;28;19991;-83
2022/01/17 13:31:21;;;;;;;;;;;9.10;99.90;;;;;;5081690;28;19970;-83
2022/01/17 13:33:47;;;;;;;;;;;9.00;99.90;;;;;;5101555;28;19924;-83
2022/01/17 13:36:21;;;;;;;;;;;9.00;99.90;;;;;;5101358;28;19927;-83
2022/01/17 13:39:19;;;;;;;;;;;8.90;99.90;;;;;;5083116;28;19988;-83
2022/01/17 13:41:46;;;;;;;;;;;8.90;99.90;;;;;;5021859;28;19925;-83
2022/01/17 13:44:12;;;;;;;;;;;8.90;99.90;;;;;;5039114;28;20367;-83
2022/01/17 13:46:43;;;;;;;;;;;8.90;99.90;;;;;;5021242;28;19948;-82
2022/01/17 13:49:09;;;;;;;;;;;8.90;99.90;;;;;;5023738;28;20399;-83
2022/01/17 13:51:35;;;;;;;;;;;8.90;99.90;;;;;;5039903;28;19921;-83
2022/01/17 13:54:00;;;;;;;;;;;8.90;99.90;;;;;;5040505;28;19925;-83
2022/01/17 13:56:33;;;;;;;;;;;9.30;99.90;;;;;;5022558;28;20381;-83
2022/01/17 13:58:58;;;;;;;;;;;9.00;99.90;;;;;;5038780;28;19921;-83
2022/01/17 14:01:30;;;;;;;;;;;8.90;99.90;;;;;;5038842;28;20019;-83
2022/01/17 14:03:56;;;;;;;;;;;9.10;99.90;;;;;;5038901;28;19956;-83
2022/01/17 14:06:21;;;;;;;;;;;9.00;99.90;;;;;;5039879;28;19925;-83
2022/01/17 14:08:49;;;;;;;;;;;9.30;99.90;;;;;;5042109;28;19925;-83
2022/01/17 14:11:18;;;;;;;;;;;9.10;99.90;;;;;;5024591;28;19925;-83
2022/01/17 14:13:47;;;;;;;;;;;9.10;99.90;;;;;;5040828;28;20020;-82
2022/01/17 14:16:15;;;;;;;;;;;9.10;99.90;;;;;;5044017;28;20525;-82
2022/01/17 14:18:45;;;;;;;;;;;9.30;99.90;;;;;;5104407;28;19956;-83
2022/01/17 14:21:28;;;;;;;;;;;9.10;99.90;;;;;;5105816;28;19924;-82
2022/01/17 14:24:12;;;;;;;;;;;9.00;99.90;;;;;;5106068;28;19924;-82
2022/01/17 14:26:39;;;;;;;;;;;8.90;99.90;;;;;;5104791;28;19980;-82
2022/01/17 14:29:09;;;;;;;;;;;9.00;99.90;;;;;;5086351;28;19924;-83
2022/01/17 14:31:35;;;;;;;;;;;8.80;99.90;;;;;;5104986;28;19926;-82
2022/01/17 14:34:11;;;;;;;;;;;8.70;99.90;;;;;;5086812;28;19924;-82
2022/01/17 14:36:37;;;;;;;;;;;8.70;99.90;;;;;;5104231;28;19927;-83
2022/01/17 14:39:05;;;;;;;;;;;8.70;99.90;;;;;;5085601;28;19924;-83
2022/01/17 14:41:36;;;;;;;;;;;8.60;99.90;;;;;;5103808;28;19927;-83
2022/01/17 14:44:06;;;;;;;;;;;8.60;99.90;;;;;;5085248;28;20114;-82
2022/01/17 14:46:32;;;;;;;;;;;8.60;99.90;;;;;;5084009;28;19977;-83
2022/01/17 14:48:58;;;;;;;;;;;8.60;99.90;;;;;;5085340;28;19987;-83
2022/01/17 14:51:32;;;;;;;;;;;8.60;99.90;;;;;;5084208;28;19966;-82
2022/01/17 14:54:06;;;;;;;;;;;8.50;99.90;;;;;;5085421;28;20019;-82
2022/01/17 15:02:09;;;;;;;;;;;8.40;99.90;;;;;;5104851;28;20003;-82
2022/01/17 15:04:38;;;;;;;;;;;8.40;99.90;;;;;;5103493;28;19924;-83
2022/01/17 15:07:05;;;;;;;;;;;8.40;99.90;;;;;;5102588;28;19924;-82
2022/01/17 15:09:30;;;;;;;;;;;8.30;99.90;;;;;;5104234;28;19930;-83
2022/01/17 15:11:56;;;;;;;;;;;8.40;99.90;;;;;;5085806;28;20014;-82
2022/01/17 15:14:21;;;;;;;;;;;8.30;99.90;;;;;;5084038;28;19928;-83
2022/01/17 15:16:47;;;;;;;;;;;8.80;99.90;;;;;;5084298;28;19946;-83
2022/01/17 15:19:12;;;;;;;;;;;8.30;99.90;;;;;;5103415;28;19920;-82
2022/01/17 15:21:38;;;;;;;;;;;8.30;99.90;;;;;;5103138;28;19947;-83
2022/01/17 15:24:04;;;;;;;;;;;8.30;99.90;;;;;;5084056;28;19920;-83
2022/01/17 15:26:29;;;;;;;;;;;8.30;99.90;;;;;;5081673;28;19930;-83
2022/01/17 15:28:55;;;;;;;;;;;8.30;99.90;;;;;;5097625;28;19924;-82
2022/01/17 15:31:21;;;;;;;;;;;8.20;99.90;;;;;;5102386;28;19924;-83
2022/01/17 15:33:47;;;;;;;;;;;8.20;99.90;;;;;;5083863;28;19959;-83
2022/01/17 15:36:14;;;;;;;;;;;8.20;99.90;;;;;;5102395;28;19924;-83
2022/01/17 15:38:41;;;;;;;;;;;8.30;99.90;;;;;;5093352;28;19924;-83
2022/01/17 15:41:09;;;;;;;;;;;8.20;99.90;;;;;;5092677;28;19924;-83
2022/01/17 15:43:35;;;;;;;;;;;8.10;99.90;;;;;;5079998;28;19931;-83
2022/01/17 15:46:00;;;;;;;;;;;8.20;99.90;;;;;;5108164;28;19924;-83
2022/01/17 15:48:26;;;;;;;;;;;8.10;99.90;;;;;;5110893;28;19934;-82
2022/01/17 15:50:52;;;;;;;;;;;8.10;99.90;;;;;;5107819;28;19924;-83
2022/01/17 15:53:18;;;;;;;;;;;8.00;99.90;;;;;;5085159;28;20406;-83
2022/01/17 15:55:43;;;;;;;;;;;8.00;99.90;;;;;;5103089;28;19987;-83